sensor_id;sensor_type;location;lat;lon;timestamp;P1;durP1;ratioP1;P2;durP2;ratioP2
65189;SDS011;51777;53.570;9.984;2023-06-19T00:00:06;6.43;;;4.28;;
65189;SDS011;51777;53.570;9.984;2023-06-19T00:02:37;6.38;;;4.50;;
65189;SDS011;51777;53.570;9.984;2023-06-19T00:05:06;6.38;;;4.22;;
65189;SDS011;51777;53.570;9.984;2023-06-19T00:07:32;8.68;;;4.03;;
65189;SDS011;51777;53.570;9.984;2023-06-19T00:09:58;4.47;;;4.07;;
65189;SDS011;51777;53.570;9.984;2023-06-19T00:12:24;5.35;;;4.15;;
65189;SDS011;51777;53.570;9.984;2023-06-19T00:14:49;13.88;;;4.55;;
65189;SDS011;51777;53.570;9.984;2023-06-19T00:17:15;6.82;;;4.15;;
65189;SDS011;51777;53.570;9.984;2023-06-19T00:19:42;6.80;;;4.55;;
65189;SDS011;51777;53.570;9.984;2023-06-19T00:22:10;6.10;;;4.50;;
65189;SDS011;51777;53.570;9.984;2023-06-19T00:24:35;4.75;;;4.20;;
65189;SDS011;51777;53.570;9.984;2023-06-19T00:27:01;4.68;;;4.25;;
65189;SDS011;51777;53.570;9.984;2023-06-19T00:29:28;6.32;;;4.05;;
65189;SDS011;51777;53.570;9.984;2023-06-19T00:31:54;7.35;;;4.18;;
65189;SDS011;51777;53.570;9.984;2023-06-19T00:34:19;7.05;;;4.40;;
65189;SDS011;51777;53.570;9.984;2023-06-19T00:36:45;5.60;;;4.60;;
65189;SDS011;51777;53.570;9.984;2023-06-19T00:39:11;6.30;;;4.22;;
65189;SDS011;51777;53.570;9.984;2023-06-19T00:41:40;4.90;;;4.03;;
65189;SDS011;51777;53.570;9.984;2023-06-19T00:44:06;7.55;;;4.35;;
65189;SDS011;51777;53.570;9.984;2023-06-19T00:46:31;7.60;;;4.60;;
65189;SDS011;51777;53.570;9.984;2023-06-19T00:48:57;8.82;;;4.28;;
65189;SDS011;51777;53.570;9.984;2023-06-19T00:51:22;5.95;;;4.35;;
65189;SDS011;51777;53.570;9.984;2023-06-19T00:53:48;6.43;;;4.25;;
65189;SDS011;51777;53.570;9.984;2023-06-19T00:56:14;7.35;;;4.15;;
65189;SDS011;51777;53.570;9.984;2023-06-19T00:58:43;7.47;;;4.43;;
65189;SDS011;51777;53.570;9.984;2023-06-19T01:01:09;6.53;;;4.47;;
65189;SDS011;51777;53.570;9.984;2023-06-19T01:03:35;7.03;;;4.57;;
65189;SDS011;51777;53.570;9.984;2023-06-19T01:06:01;7.13;;;4.55;;
65189;SDS011;51777;53.570;9.984;2023-06-19T01:08:49;6.55;;;4.38;;
65189;SDS011;51777;53.570;9.984;2023-06-19T01:11:17;5.63;;;4.18;;
65189;SDS011;51777;53.570;9.984;2023-06-19T01:13:49;8.18;;;4.95;;
65189;SDS011;51777;53.570;9.984;2023-06-19T01:16:19;5.78;;;4.57;;
65189;SDS011;51777;53.570;9.984;2023-06-19T01:18:46;7.72;;;4.88;;
65189;SDS011;51777;53.570;9.984;2023-06-19T01:21:14;7.03;;;4.68;;
65189;SDS011;51777;53.570;9.984;2023-06-19T01:23:41;5.38;;;4.55;;
65189;SDS011;51777;53.570;9.984;2023-06-19T01:26:07;6.18;;;5.00;;
65189;SDS011;51777;53.570;9.984;2023-06-19T01:28:33;6.95;;;4.90;;
65189;SDS011;51777;53.570;9.984;2023-06-19T01:31:02;5.03;;;4.50;;
65189;SDS011;51777;53.570;9.984;2023-06-19T01:33:33;7.47;;;4.47;;
65189;SDS011;51777;53.570;9.984;2023-06-19T01:36:03;5.95;;;5.15;;
65189;SDS011;51777;53.570;9.984;2023-06-19T01:38:30;6.80;;;4.80;;
65189;SDS011;51777;53.570;9.984;2023-06-19T01:40:56;6.88;;;4.50;;
65189;SDS011;51777;53.570;9.984;2023-06-19T01:43:24;7.53;;;4.72;;
65189;SDS011;51777;53.570;9.984;2023-06-19T01:45:51;7.72;;;4.63;;
65189;SDS011;51777;53.570;9.984;2023-06-19T01:48:17;5.30;;;4.68;;
65189;SDS011;51777;53.570;9.984;2023-06-19T01:50:46;6.82;;;4.65;;
65189;SDS011;51777;53.570;9.984;2023-06-19T01:53:12;5.35;;;4.72;;
65189;SDS011;51777;53.570;9.984;2023-06-19T01:55:38;5.60;;;4.95;;
65189;SDS011;51777;53.570;9.984;2023-06-19T01:58:04;8.20;;;5.00;;
65189;SDS011;51777;53.570;9.984;2023-06-19T02:00:29;5.90;;;4.93;;
65189;SDS011;51777;53.570;9.984;2023-06-19T02:02:55;5.68;;;4.90;;
65189;SDS011;51777;53.570;9.984;2023-06-19T02:05:21;8.30;;;5.03;;
65189;SDS011;51777;53.570;9.984;2023-06-19T02:07:46;5.00;;;4.50;;
65189;SDS011;51777;53.570;9.984;2023-06-19T02:10:12;8.55;;;5.68;;
65189;SDS011;51777;53.570;9.984;2023-06-19T02:12:38;6.50;;;5.35;;
65189;SDS011;51777;53.570;9.984;2023-06-19T02:15:03;7.22;;;5.10;;
65189;SDS011;51777;53.570;9.984;2023-06-19T02:17:29;6.13;;;5.28;;
65189;SDS011;51777;53.570;9.984;2023-06-19T02:19:54;5.45;;;4.85;;
65189;SDS011;51777;53.570;9.984;2023-06-19T02:22:20;6.10;;;4.78;;
65189;SDS011;51777;53.570;9.984;2023-06-19T02:24:45;9.70;;;5.00;;
65189;SDS011;51777;53.570;9.984;2023-06-19T02:27:10;8.20;;;5.05;;
65189;SDS011;51777;53.570;9.984;2023-06-19T02:29:36;6.28;;;5.00;;
65189;SDS011;51777;53.570;9.984;2023-06-19T02:32:02;6.18;;;4.82;;
65189;SDS011;51777;53.570;9.984;2023-06-19T02:34:28;9.98;;;5.55;;
65189;SDS011;51777;53.570;9.984;2023-06-19T02:36:53;6.72;;;5.43;;
65189;SDS011;51777;53.570;9.984;2023-06-19T02:39:19;7.30;;;5.47;;
65189;SDS011;51777;53.570;9.984;2023-06-19T02:41:44;10.30;;;5.47;;
65189;SDS011;51777;53.570;9.984;2023-06-19T02:44:12;6.22;;;5.25;;
65189;SDS011;51777;53.570;9.984;2023-06-19T02:46:38;8.55;;;5.30;;
65189;SDS011;51777;53.570;9.984;2023-06-19T02:49:03;9.10;;;5.00;;
65189;SDS011;51777;53.570;9.984;2023-06-19T02:51:28;9.95;;;5.75;;
65189;SDS011;51777;53.570;9.984;2023-06-19T02:53:54;6.30;;;5.68;;
65189;SDS011;51777;53.570;9.984;2023-06-19T02:56:19;7.95;;;5.38;;
65189;SDS011;51777;53.570;9.984;2023-06-19T02:58:45;9.93;;;5.57;;
65189;SDS011;51777;53.570;9.984;2023-06-19T03:01:10;7.22;;;5.72;;
65189;SDS011;51777;53.570;9.984;2023-06-19T03:03:36;6.35;;;5.50;;
65189;SDS011;51777;53.570;9.984;2023-06-19T03:06:05;7.40;;;5.47;;
65189;SDS011;51777;53.570;9.984;2023-06-19T03:08:35;6.57;;;5.45;;
65189;SDS011;51777;53.570;9.984;2023-06-19T03:11:00;6.28;;;5.40;;
65189;SDS011;51777;53.570;9.984;2023-06-19T03:13:29;6.35;;;5.57;;
65189;SDS011;51777;53.570;9.984;2023-06-19T03:15:57;7.75;;;5.40;;
65189;SDS011;51777;53.570;9.984;2023-06-19T03:18:22;9.25;;;6.30;;
65189;SDS011;51777;53.570;9.984;2023-06-19T03:20:47;7.45;;;5.57;;
65189;SDS011;51777;53.570;9.984;2023-06-19T03:23:13;7.95;;;5.78;;
65189;SDS011;51777;53.570;9.984;2023-06-19T03:25:38;9.95;;;5.90;;
65189;SDS011;51777;53.570;9.984;2023-06-19T03:28:07;6.40;;;5.80;;
65189;SDS011;51777;53.570;9.984;2023-06-19T03:30:33;8.50;;;5.80;;
65189;SDS011;51777;53.570;9.984;2023-06-19T03:32:58;11.10;;;5.38;;
65189;SDS011;51777;53.570;9.984;2023-06-19T03:35:24;7.00;;;5.53;;
65189;SDS011;51777;53.570;9.984;2023-06-19T03:37:49;8.18;;;5.85;;
65189;SDS011;51777;53.570;9.984;2023-06-19T03:40:14;8.85;;;6.13;;
65189;SDS011;51777;53.570;9.984;2023-06-19T03:42:41;10.65;;;5.70;;
65189;SDS011;51777;53.570;9.984;2023-06-19T03:45:06;8.38;;;6.25;;
65189;SDS011;51777;53.570;9.984;2023-06-19T03:47:32;9.02;;;6.38;;
65189;SDS011;51777;53.570;9.984;2023-06-19T03:49:57;7.63;;;5.82;;
65189;SDS011;51777;53.570;9.984;2023-06-19T03:52:23;9.73;;;6.25;;
65189;SDS011;51777;53.570;9.984;2023-06-19T03:54:48;7.85;;;6.10;;
65189;SDS011;51777;53.570;9.984;2023-06-19T03:57:14;9.18;;;5.85;;
65189;SDS011;51777;53.570;9.984;2023-06-19T03:59:40;6.90;;;6.05;;
65189;SDS011;51777;53.570;9.984;2023-06-19T04:02:05;7.43;;;5.80;;
65189;SDS011;51777;53.570;9.984;2023-06-19T04:04:30;6.15;;;5.55;;
65189;SDS011;51777;53.570;9.984;2023-06-19T04:06:56;6.90;;;5.85;;
65189;SDS011;51777;53.570;9.984;2023-06-19T04:09:22;7.90;;;5.85;;
65189;SDS011;51777;53.570;9.984;2023-06-19T04:11:47;8.10;;;6.28;;
65189;SDS011;51777;53.570;9.984;2023-06-19T04:14:13;8.00;;;6.00;;
65189;SDS011;51777;53.570;9.984;2023-06-19T04:16:38;6.63;;;5.90;;
65189;SDS011;51777;53.570;9.984;2023-06-19T04:19:03;9.77;;;6.28;;
65189;SDS011;51777;53.570;9.984;2023-06-19T04:21:29;6.82;;;5.93;;
65189;SDS011;51777;53.570;9.984;2023-06-19T04:23:54;7.22;;;5.97;;
65189;SDS011;51777;53.570;9.984;2023-06-19T04:26:19;7.50;;;6.28;;
65189;SDS011;51777;53.570;9.984;2023-06-19T04:28:46;8.25;;;6.20;;
65189;SDS011;51777;53.570;9.984;2023-06-19T04:31:12;9.70;;;6.07;;
65189;SDS011;51777;53.570;9.984;2023-06-19T04:33:37;9.63;;;5.85;;
65189;SDS011;51777;53.570;9.984;2023-06-19T04:36:05;7.80;;;5.95;;
65189;SDS011;51777;53.570;9.984;2023-06-19T04:38:30;7.25;;;5.82;;
65189;SDS011;51777;53.570;9.984;2023-06-19T04:40:56;11.10;;;6.15;;
65189;SDS011;51777;53.570;9.984;2023-06-19T04:43:22;9.52;;;6.10;;
65189;SDS011;51777;53.570;9.984;2023-06-19T04:45:49;10.93;;;6.45;;
65189;SDS011;51777;53.570;9.984;2023-06-19T04:48:18;8.70;;;6.28;;
65189;SDS011;51777;53.570;9.984;2023-06-19T04:50:43;12.05;;;6.13;;
65189;SDS011;51777;53.570;9.984;2023-06-19T04:53:09;7.68;;;6.40;;
65189;SDS011;51777;53.570;9.984;2023-06-19T04:55:34;11.07;;;6.60;;
65189;SDS011;51777;53.570;9.984;2023-06-19T04:58:00;9.43;;;6.57;;
65189;SDS011;51777;53.570;9.984;2023-06-19T05:00:25;10.43;;;6.30;;
65189;SDS011;51777;53.570;9.984;2023-06-19T05:02:51;8.75;;;6.60;;
65189;SDS011;51777;53.570;9.984;2023-06-19T05:05:17;13.10;;;6.32;;
65189;SDS011;51777;53.570;9.984;2023-06-19T05:07:42;11.13;;;6.32;;
65189;SDS011;51777;53.570;9.984;2023-06-19T05:10:10;7.93;;;6.22;;
65189;SDS011;51777;53.570;9.984;2023-06-19T05:12:35;7.68;;;6.25;;
65189;SDS011;51777;53.570;9.984;2023-06-19T05:15:01;8.35;;;6.03;;
65189;SDS011;51777;53.570;9.984;2023-06-19T05:17:27;12.73;;;6.72;;
65189;SDS011;51777;53.570;9.984;2023-06-19T05:19:53;13.15;;;6.30;;
65189;SDS011;51777;53.570;9.984;2023-06-19T05:22:18;10.90;;;6.18;;
65189;SDS011;51777;53.570;9.984;2023-06-19T05:24:46;10.10;;;7.13;;
65189;SDS011;51777;53.570;9.984;2023-06-19T05:27:11;9.30;;;6.47;;
65189;SDS011;51777;53.570;9.984;2023-06-19T05:29:37;8.63;;;6.30;;
65189;SDS011;51777;53.570;9.984;2023-06-19T05:32:02;15.15;;;6.70;;
65189;SDS011;51777;53.570;9.984;2023-06-19T05:34:28;12.35;;;6.10;;
65189;SDS011;51777;53.570;9.984;2023-06-19T05:36:53;8.13;;;6.38;;
65189;SDS011;51777;53.570;9.984;2023-06-19T05:39:19;14.40;;;6.50;;
65189;SDS011;51777;53.570;9.984;2023-06-19T05:41:44;18.05;;;6.47;;
65189;SDS011;51777;53.570;9.984;2023-06-19T05:44:10;8.30;;;6.38;;
65189;SDS011;51777;53.570;9.984;2023-06-19T05:46:40;14.27;;;6.43;;
65189;SDS011;51777;53.570;9.984;2023-06-19T05:49:05;15.07;;;6.57;;
65189;SDS011;51777;53.570;9.984;2023-06-19T05:51:31;20.95;;;7.10;;
65189;SDS011;51777;53.570;9.984;2023-06-19T05:53:56;22.02;;;7.10;;
65189;SDS011;51777;53.570;9.984;2023-06-19T05:56:26;16.23;;;6.80;;
65189;SDS011;51777;53.570;9.984;2023-06-19T05:58:51;15.20;;;6.55;;
65189;SDS011;51777;53.570;9.984;2023-06-19T06:01:16;11.93;;;6.88;;
65189;SDS011;51777;53.570;9.984;2023-06-19T06:03:42;29.02;;;7.57;;
65189;SDS011;51777;53.570;9.984;2023-06-19T06:06:08;15.65;;;6.90;;
65189;SDS011;51777;53.570;9.984;2023-06-19T06:08:33;17.55;;;7.10;;
65189;SDS011;51777;53.570;9.984;2023-06-19T06:10:59;13.88;;;6.63;;
65189;SDS011;51777;53.570;9.984;2023-06-19T06:13:25;25.70;;;7.22;;
65189;SDS011;51777;53.570;9.984;2023-06-19T06:15:50;18.48;;;7.00;;
65189;SDS011;51777;53.570;9.984;2023-06-19T06:18:16;12.70;;;7.35;;
65189;SDS011;51777;53.570;9.984;2023-06-19T06:20:41;22.75;;;7.70;;
65189;SDS011;51777;53.570;9.984;2023-06-19T06:23:07;21.48;;;7.60;;
65189;SDS011;51777;53.570;9.984;2023-06-19T06:25:32;27.90;;;8.05;;
65189;SDS011;51777;53.570;9.984;2023-06-19T06:27:57;22.92;;;8.77;;
65189;SDS011;51777;53.570;9.984;2023-06-19T06:30:23;53.80;;;8.98;;
65189;SDS011;51777;53.570;9.984;2023-06-19T06:32:49;25.05;;;8.00;;
65189;SDS011;51777;53.570;9.984;2023-06-19T06:35:15;43.95;;;8.48;;
65189;SDS011;51777;53.570;9.984;2023-06-19T06:37:40;46.80;;;9.63;;
65189;SDS011;51777;53.570;9.984;2023-06-19T06:40:06;37.70;;;8.10;;
65189;SDS011;51777;53.570;9.984;2023-06-19T06:42:36;31.80;;;9.50;;
65189;SDS011;51777;53.570;9.984;2023-06-19T06:45:01;42.42;;;9.82;;
65189;SDS011;51777;53.570;9.984;2023-06-19T06:47:27;58.17;;;11.18;;
65189;SDS011;51777;53.570;9.984;2023-06-19T06:49:52;40.50;;;9.45;;
65189;SDS011;51777;53.570;9.984;2023-06-19T06:52:18;16.17;;;8.07;;
65189;SDS011;51777;53.570;9.984;2023-06-19T06:54:43;14.98;;;8.23;;
65189;SDS011;51777;53.570;9.984;2023-06-19T06:57:09;31.90;;;9.00;;
65189;SDS011;51777;53.570;9.984;2023-06-19T06:59:34;100.00;;;12.93;;
65189;SDS011;51777;53.570;9.984;2023-06-19T07:01:59;101.22;;;12.90;;
65189;SDS011;51777;53.570;9.984;2023-06-19T07:04:25;44.78;;;10.07;;
65189;SDS011;51777;53.570;9.984;2023-06-19T07:06:50;55.42;;;10.70;;
65189;SDS011;51777;53.570;9.984;2023-06-19T07:09:16;43.90;;;9.75;;
65189;SDS011;51777;53.570;9.984;2023-06-19T07:11:43;47.17;;;9.30;;
65189;SDS011;51777;53.570;9.984;2023-06-19T07:14:08;60.65;;;11.20;;
65189;SDS011;51777;53.570;9.984;2023-06-19T07:16:34;30.48;;;9.70;;
65189;SDS011;51777;53.570;9.984;2023-06-19T07:18:59;65.90;;;9.73;;
65189;SDS011;51777;53.570;9.984;2023-06-19T07:21:25;35.13;;;8.68;;
65189;SDS011;51777;53.570;9.984;2023-06-19T07:23:53;34.40;;;8.88;;
65189;SDS011;51777;53.570;9.984;2023-06-19T07:26:18;18.88;;;7.90;;
65189;SDS011;51777;53.570;9.984;2023-06-19T07:28:44;41.40;;;8.50;;
65189;SDS011;51777;53.570;9.984;2023-06-19T07:31:09;26.42;;;7.97;;
65189;SDS011;51777;53.570;9.984;2023-06-19T07:33:35;31.92;;;8.40;;
65189;SDS011;51777;53.570;9.984;2023-06-19T07:36:00;17.25;;;7.40;;
65189;SDS011;51777;53.570;9.984;2023-06-19T07:38:27;12.95;;;7.88;;
65189;SDS011;51777;53.570;9.984;2023-06-19T07:40:53;25.27;;;8.48;;
65189;SDS011;51777;53.570;9.984;2023-06-19T07:43:18;20.75;;;8.25;;
65189;SDS011;51777;53.570;9.984;2023-06-19T07:45:44;30.20;;;8.65;;
65189;SDS011;51777;53.570;9.984;2023-06-19T07:48:09;33.53;;;8.77;;
65189;SDS011;51777;53.570;9.984;2023-06-19T07:50:34;28.50;;;8.57;;
65189;SDS011;51777;53.570;9.984;2023-06-19T07:53:00;25.08;;;8.35;;
65189;SDS011;51777;53.570;9.984;2023-06-19T07:55:25;24.70;;;8.60;;
65189;SDS011;51777;53.570;9.984;2023-06-19T07:57:51;39.10;;;9.52;;
65189;SDS011;51777;53.570;9.984;2023-06-19T08:00:17;40.78;;;9.52;;
65189;SDS011;51777;53.570;9.984;2023-06-19T08:02:43;27.75;;;8.35;;
65189;SDS011;51777;53.570;9.984;2023-06-19T08:05:11;22.95;;;8.45;;
65189;SDS011;51777;53.570;9.984;2023-06-19T08:07:36;23.50;;;7.30;;
65189;SDS011;51777;53.570;9.984;2023-06-19T08:10:03;35.95;;;8.15;;
65189;SDS011;51777;53.570;9.984;2023-06-19T08:12:29;30.42;;;8.38;;
65189;SDS011;51777;53.570;9.984;2023-06-19T08:14:55;38.35;;;8.38;;
65189;SDS011;51777;53.570;9.984;2023-06-19T08:17:20;29.67;;;8.90;;
65189;SDS011;51777;53.570;9.984;2023-06-19T08:19:45;33.88;;;9.05;;
65189;SDS011;51777;53.570;9.984;2023-06-19T08:22:11;28.05;;;8.75;;
65189;SDS011;51777;53.570;9.984;2023-06-19T08:24:36;24.77;;;7.72;;
65189;SDS011;51777;53.570;9.984;2023-06-19T08:27:04;52.03;;;10.35;;
65189;SDS011;51777;53.570;9.984;2023-06-19T08:29:30;38.17;;;8.55;;
65189;SDS011;51777;53.570;9.984;2023-06-19T08:31:58;30.20;;;8.40;;
65189;SDS011;51777;53.570;9.984;2023-06-19T08:34:25;16.30;;;7.72;;
65189;SDS011;51777;53.570;9.984;2023-06-19T08:36:51;16.50;;;7.75;;
65189;SDS011;51777;53.570;9.984;2023-06-19T08:39:16;26.85;;;8.30;;
65189;SDS011;51777;53.570;9.984;2023-06-19T08:41:44;27.73;;;8.00;;
65189;SDS011;51777;53.570;9.984;2023-06-19T08:44:10;29.60;;;7.80;;
65189;SDS011;51777;53.570;9.984;2023-06-19T08:46:36;23.50;;;7.60;;
65189;SDS011;51777;53.570;9.984;2023-06-19T08:49:02;15.55;;;6.70;;
65189;SDS011;51777;53.570;9.984;2023-06-19T08:51:28;11.63;;;6.60;;
65189;SDS011;51777;53.570;9.984;2023-06-19T08:54:04;21.52;;;7.45;;
65189;SDS011;51777;53.570;9.984;2023-06-19T08:56:30;20.27;;;6.45;;
65189;SDS011;51777;53.570;9.984;2023-06-19T09:01:46;9.27;;;6.05;;
65189;SDS011;51777;53.570;9.984;2023-06-19T09:04:17;50.20;;;8.68;;
65189;SDS011;51777;53.570;9.984;2023-06-19T09:06:56;27.27;;;7.00;;
65189;SDS011;51777;53.570;9.984;2023-06-19T09:09:23;22.25;;;7.35;;
65189;SDS011;51777;53.570;9.984;2023-06-19T09:14:35;40.08;;;8.20;;
65189;SDS011;51777;53.570;9.984;2023-06-19T09:17:03;21.95;;;6.97;;
65189;SDS011;51777;53.570;9.984;2023-06-19T09:19:29;36.67;;;8.10;;
65189;SDS011;51777;53.570;9.984;2023-06-19T09:22:05;29.15;;;7.63;;
65189;SDS011;51777;53.570;9.984;2023-06-19T09:24:33;18.88;;;6.68;;
65189;SDS011;51777;53.570;9.984;2023-06-19T09:27:09;21.42;;;6.57;;
65189;SDS011;51777;53.570;9.984;2023-06-19T09:29:38;22.52;;;6.82;;
65189;SDS011;51777;53.570;9.984;2023-06-19T09:34:43;27.75;;;7.13;;
65189;SDS011;51777;53.570;9.984;2023-06-19T09:37:08;26.77;;;7.40;;
65189;SDS011;51777;53.570;9.984;2023-06-19T09:39:34;14.65;;;7.13;;
65189;SDS011;51777;53.570;9.984;2023-06-19T09:42:02;22.55;;;7.25;;
65189;SDS011;51777;53.570;9.984;2023-06-19T09:44:30;20.40;;;6.70;;
65189;SDS011;51777;53.570;9.984;2023-06-19T09:47:01;23.60;;;6.73;;
65189;SDS011;51777;53.570;9.984;2023-06-19T09:49:32;27.90;;;7.22;;
65189;SDS011;51777;53.570;9.984;2023-06-19T09:52:00;15.40;;;6.97;;
65189;SDS011;51777;53.570;9.984;2023-06-19T09:54:27;24.27;;;6.97;;
65189;SDS011;51777;53.570;9.984;2023-06-19T09:56:54;16.67;;;7.20;;
65189;SDS011;51777;53.570;9.984;2023-06-19T09:59:23;25.92;;;7.88;;
65189;SDS011;51777;53.570;9.984;2023-06-19T10:01:49;17.80;;;7.07;;
65189;SDS011;51777;53.570;9.984;2023-06-19T10:04:15;19.23;;;6.85;;
65189;SDS011;51777;53.570;9.984;2023-06-19T10:06:42;20.10;;;6.95;;
65189;SDS011;51777;53.570;9.984;2023-06-19T10:09:09;15.48;;;7.22;;
65189;SDS011;51777;53.570;9.984;2023-06-19T10:11:48;13.88;;;6.70;;
65189;SDS011;51777;53.570;9.984;2023-06-19T10:14:21;13.97;;;6.73;;
65189;SDS011;51777;53.570;9.984;2023-06-19T10:16:47;12.00;;;6.65;;
65189;SDS011;51777;53.570;9.984;2023-06-19T10:19:14;16.13;;;6.75;;
65189;SDS011;51777;53.570;9.984;2023-06-19T10:21:49;11.13;;;6.50;;
65189;SDS011;51777;53.570;9.984;2023-06-19T10:24:16;8.68;;;6.18;;
65189;SDS011;51777;53.570;9.984;2023-06-19T10:26:54;16.33;;;6.65;;
65189;SDS011;51777;53.570;9.984;2023-06-19T10:29:23;19.13;;;6.30;;
65189;SDS011;51777;53.570;9.984;2023-06-19T10:31:50;17.00;;;6.88;;
65189;SDS011;51777;53.570;9.984;2023-06-19T10:34:16;14.35;;;6.80;;
65189;SDS011;51777;53.570;9.984;2023-06-19T10:36:41;12.90;;;7.43;;
65189;SDS011;51777;53.570;9.984;2023-06-19T10:39:08;15.73;;;6.20;;
65189;SDS011;51777;53.570;9.984;2023-06-19T10:41:35;16.48;;;6.03;;
65189;SDS011;51777;53.570;9.984;2023-06-19T10:44:02;10.50;;;6.28;;
65189;SDS011;51777;53.570;9.984;2023-06-19T10:46:33;11.55;;;7.70;;
65189;SDS011;51777;53.570;9.984;2023-06-19T10:49:02;18.83;;;11.43;;
65189;SDS011;51777;53.570;9.984;2023-06-19T10:51:38;9.13;;;7.30;;
65189;SDS011;51777;53.570;9.984;2023-06-19T10:54:05;10.25;;;6.18;;
65189;SDS011;51777;53.570;9.984;2023-06-19T10:56:32;11.73;;;6.10;;
65189;SDS011;51777;53.570;9.984;2023-06-19T10:59:05;13.65;;;7.00;;
65189;SDS011;51777;53.570;9.984;2023-06-19T11:01:39;15.45;;;5.85;;
65189;SDS011;51777;53.570;9.984;2023-06-19T11:04:10;9.57;;;5.80;;
65189;SDS011;51777;53.570;9.984;2023-06-19T11:06:37;9.45;;;5.95;;
65189;SDS011;51777;53.570;9.984;2023-06-19T11:09:03;8.20;;;5.43;;
65189;SDS011;51777;53.570;9.984;2023-06-19T11:11:39;6.68;;;5.43;;
65189;SDS011;51777;53.570;9.984;2023-06-19T11:14:07;6.70;;;5.20;;
65189;SDS011;51777;53.570;9.984;2023-06-19T11:16:37;10.82;;;5.22;;
65189;SDS011;51777;53.570;9.984;2023-06-19T11:19:06;6.88;;;5.07;;
65189;SDS011;51777;53.570;9.984;2023-06-19T11:21:33;6.78;;;4.05;;
65189;SDS011;51777;53.570;9.984;2023-06-19T11:24:00;5.53;;;4.70;;
65189;SDS011;51777;53.570;9.984;2023-06-19T11:26:26;9.98;;;4.60;;
65189;SDS011;51777;53.570;9.984;2023-06-19T11:28:52;8.38;;;4.28;;
65189;SDS011;51777;53.570;9.984;2023-06-19T11:31:17;9.60;;;4.18;;
65189;SDS011;51777;53.570;9.984;2023-06-19T11:36:23;6.20;;;4.40;;
65189;SDS011;51777;53.570;9.984;2023-06-19T11:38:49;5.25;;;4.18;;
65189;SDS011;51777;53.570;9.984;2023-06-19T11:41:24;6.07;;;4.28;;
65189;SDS011;51777;53.570;9.984;2023-06-19T11:43:58;7.65;;;3.92;;
65189;SDS011;51777;53.570;9.984;2023-06-19T11:46:28;6.80;;;3.63;;
65189;SDS011;51777;53.570;9.984;2023-06-19T11:48:56;6.80;;;4.13;;
65189;SDS011;51777;53.570;9.984;2023-06-19T11:51:45;5.43;;;3.95;;
65189;SDS011;51777;53.570;9.984;2023-06-19T11:54:14;4.15;;;3.70;;
65189;SDS011;51777;53.570;9.984;2023-06-19T11:56:40;8.10;;;3.97;;
65189;SDS011;51777;53.570;9.984;2023-06-19T11:59:06;5.18;;;3.97;;
65189;SDS011;51777;53.570;9.984;2023-06-19T12:01:34;4.63;;;4.18;;
65189;SDS011;51777;53.570;9.984;2023-06-19T12:04:01;4.57;;;3.92;;
65189;SDS011;51777;53.570;9.984;2023-06-19T12:06:28;6.15;;;3.92;;
65189;SDS011;51777;53.570;9.984;2023-06-19T12:08:54;6.72;;;4.28;;
65189;SDS011;51777;53.570;9.984;2023-06-19T12:11:19;6.60;;;4.20;;
65189;SDS011;51777;53.570;9.984;2023-06-19T12:13:45;5.55;;;3.90;;
65189;SDS011;51777;53.570;9.984;2023-06-19T12:16:11;7.90;;;4.35;;
65189;SDS011;51777;53.570;9.984;2023-06-19T12:18:37;3.00;;;2.70;;
65189;SDS011;51777;53.570;9.984;2023-06-19T12:21:02;14.85;;;4.10;;
65189;SDS011;51777;53.570;9.984;2023-06-19T12:23:28;8.68;;;4.40;;
65189;SDS011;51777;53.570;9.984;2023-06-19T12:25:54;10.00;;;4.25;;
65189;SDS011;51777;53.570;9.984;2023-06-19T12:28:21;4.70;;;4.00;;
65189;SDS011;51777;53.570;9.984;2023-06-19T12:30:46;5.75;;;4.63;;
65189;SDS011;51777;53.570;9.984;2023-06-19T12:33:16;10.05;;;4.40;;
65189;SDS011;51777;53.570;9.984;2023-06-19T12:35:42;5.28;;;4.05;;
65189;SDS011;51777;53.570;9.984;2023-06-19T12:38:09;4.90;;;4.10;;
65189;SDS011;51777;53.570;9.984;2023-06-19T12:40:36;5.38;;;4.45;;
65189;SDS011;51777;53.570;9.984;2023-06-19T12:43:02;8.65;;;4.28;;
65189;SDS011;51777;53.570;9.984;2023-06-19T12:45:28;4.95;;;4.40;;
65189;SDS011;51777;53.570;9.984;2023-06-19T12:47:53;5.03;;;3.75;;
65189;SDS011;51777;53.570;9.984;2023-06-19T12:50:19;6.53;;;3.80;;
65189;SDS011;51777;53.570;9.984;2023-06-19T12:52:44;3.80;;;3.03;;
65189;SDS011;51777;53.570;9.984;2023-06-19T12:55:10;8.15;;;4.00;;
65189;SDS011;51777;53.570;9.984;2023-06-19T12:57:36;7.20;;;3.72;;
65189;SDS011;51777;53.570;9.984;2023-06-19T13:00:01;6.45;;;3.70;;
65189;SDS011;51777;53.570;9.984;2023-06-19T13:02:30;7.43;;;3.90;;
65189;SDS011;51777;53.570;9.984;2023-06-19T13:04:56;4.72;;;3.90;;
65189;SDS011;51777;53.570;9.984;2023-06-19T13:07:23;6.43;;;3.63;;
65189;SDS011;51777;53.570;9.984;2023-06-19T13:09:48;4.90;;;3.63;;
65189;SDS011;51777;53.570;9.984;2023-06-19T13:12:14;5.18;;;3.85;;
65189;SDS011;51777;53.570;9.984;2023-06-19T13:14:43;6.22;;;3.90;;
65189;SDS011;51777;53.570;9.984;2023-06-19T13:17:08;7.45;;;3.42;;
65189;SDS011;51777;53.570;9.984;2023-06-19T13:19:34;6.60;;;3.50;;
65189;SDS011;51777;53.570;9.984;2023-06-19T13:21:59;7.53;;;3.35;;
65189;SDS011;51777;53.570;9.984;2023-06-19T13:24:25;6.22;;;3.25;;
65189;SDS011;51777;53.570;9.984;2023-06-19T13:26:53;5.20;;;3.00;;
65189;SDS011;51777;53.570;9.984;2023-06-19T13:29:19;4.60;;;2.97;;
65189;SDS011;51777;53.570;9.984;2023-06-19T13:31:45;5.95;;;2.90;;
65189;SDS011;51777;53.570;9.984;2023-06-19T13:34:11;5.30;;;3.20;;
65189;SDS011;51777;53.570;9.984;2023-06-19T13:36:36;11.50;;;3.63;;
65189;SDS011;51777;53.570;9.984;2023-06-19T13:39:02;9.00;;;3.40;;
65189;SDS011;51777;53.570;9.984;2023-06-19T13:41:29;6.32;;;2.90;;
65189;SDS011;51777;53.570;9.984;2023-06-19T13:43:57;7.38;;;3.15;;
65189;SDS011;51777;53.570;9.984;2023-06-19T13:46:23;4.85;;;3.20;;
65189;SDS011;51777;53.570;9.984;2023-06-19T13:48:49;5.63;;;3.00;;
65189;SDS011;51777;53.570;9.984;2023-06-19T13:51:17;6.72;;;3.45;;
65189;SDS011;51777;53.570;9.984;2023-06-19T13:53:43;3.50;;;3.10;;
65189;SDS011;51777;53.570;9.984;2023-06-19T13:56:10;2.83;;;2.60;;
65189;SDS011;51777;53.570;9.984;2023-06-19T13:58:36;4.47;;;2.97;;
65189;SDS011;51777;53.570;9.984;2023-06-19T14:01:02;3.00;;;2.78;;
65189;SDS011;51777;53.570;9.984;2023-06-19T14:03:27;3.42;;;2.97;;
65189;SDS011;51777;53.570;9.984;2023-06-19T14:05:52;5.88;;;2.90;;
65189;SDS011;51777;53.570;9.984;2023-06-19T14:08:18;8.40;;;2.55;;
65189;SDS011;51777;53.570;9.984;2023-06-19T14:10:43;11.52;;;2.58;;
65189;SDS011;51777;53.570;9.984;2023-06-19T14:13:09;3.30;;;2.70;;
65189;SDS011;51777;53.570;9.984;2023-06-19T14:15:34;8.80;;;2.67;;
65189;SDS011;51777;53.570;9.984;2023-06-19T14:18:00;3.40;;;2.80;;
65189;SDS011;51777;53.570;9.984;2023-06-19T14:20:25;5.05;;;2.70;;
65189;SDS011;51777;53.570;9.984;2023-06-19T14:22:51;8.15;;;2.90;;
65189;SDS011;51777;53.570;9.984;2023-06-19T14:25:16;3.10;;;2.53;;
65189;SDS011;51777;53.570;9.984;2023-06-19T14:27:42;7.72;;;3.15;;
65189;SDS011;51777;53.570;9.984;2023-06-19T14:30:07;5.70;;;2.40;;
65189;SDS011;51777;53.570;9.984;2023-06-19T14:32:34;4.38;;;2.35;;
65189;SDS011;51777;53.570;9.984;2023-06-19T14:35:00;4.18;;;2.53;;
65189;SDS011;51777;53.570;9.984;2023-06-19T14:37:26;3.22;;;2.60;;
65189;SDS011;51777;53.570;9.984;2023-06-19T14:39:51;5.60;;;2.80;;
65189;SDS011;51777;53.570;9.984;2023-06-19T14:42:17;2.70;;;2.50;;
65189;SDS011;51777;53.570;9.984;2023-06-19T14:44:42;8.35;;;2.80;;
65189;SDS011;51777;53.570;9.984;2023-06-19T14:47:08;3.58;;;2.60;;